Prairie, Idaho
Current Conditions -  °F | °C
As of 4:58 PM on Friday 24 Oct 2014 (Local Time) from KMUO Reporting Station
Clear Clear  
Wind Chill: 71°   Ceiling: Unl
Heat Index: 71°   Visibility: 9mi
Dew Point: 41°   Wind: 2mph
Humidity: 34%   Direction: NA
Pressure: 29.97"   Gusts: NA
Location:  43.2609°N, 115.781°W
Report Text: KMUO 242258Z AUTO VRB02KT 9SM CLR 22/05 A2997 RMK AO2 SLP137 T02160050
Loading
Personal Weather Stations






























Interactive Weather Map
Tropical Storm Tracking
New forecast layout! Learn more

10-Day Weather Forecast

Advertisements
Track Severe Weather on mobile